sensor_id;sensor_type;location;lat;lon;timestamp;P1;durP1;ratioP1;P2;durP2;ratioP2
68951;SDS011;56000;51.146;17.112;2023-01-13T00:02:03;3.90;;;2.20;;
68951;SDS011;56000;51.146;17.112;2023-01-13T00:04:37;3.00;;;2.10;;
68951;SDS011;56000;51.146;17.112;2023-01-13T00:07:11;2.60;;;1.70;;
68951;SDS011;56000;51.146;17.112;2023-01-13T00:09:44;3.80;;;2.00;;
68951;SDS011;56000;51.146;17.112;2023-01-13T00:12:17;3.40;;;1.90;;
68951;SDS011;56000;51.146;17.112;2023-01-13T00:14:50;3.30;;;1.90;;
68951;SDS011;56000;51.146;17.112;2023-01-13T00:17:24;2.60;;;1.70;;
68951;SDS011;56000;51.146;17.112;2023-01-13T00:19:57;2.30;;;1.40;;
68951;SDS011;56000;51.146;17.112;2023-01-13T00:22:33;2.30;;;1.50;;
68951;SDS011;56000;51.146;17.112;2023-01-13T00:25:07;2.30;;;1.60;;
68951;SDS011;56000;51.146;17.112;2023-01-13T00:27:41;2.70;;;1.70;;
68951;SDS011;56000;51.146;17.112;2023-01-13T00:30:15;2.20;;;1.70;;
68951;SDS011;56000;51.146;17.112;2023-01-13T00:32:48;3.80;;;1.70;;
68951;SDS011;56000;51.146;17.112;2023-01-13T00:35:21;3.00;;;1.70;;
68951;SDS011;56000;51.146;17.112;2023-01-13T00:37:54;2.10;;;1.80;;
68951;SDS011;56000;51.146;17.112;2023-01-13T00:40:27;3.70;;;2.10;;
68951;SDS011;56000;51.146;17.112;2023-01-13T00:43:00;3.60;;;1.90;;
68951;SDS011;56000;51.146;17.112;2023-01-13T00:45:50;4.80;;;2.00;;
68951;SDS011;56000;51.146;17.112;2023-01-13T00:48:24;4.10;;;2.10;;
68951;SDS011;56000;51.146;17.112;2023-01-13T00:50:58;3.40;;;2.00;;
68951;SDS011;56000;51.146;17.112;2023-01-13T00:53:37;4.70;;;2.20;;
68951;SDS011;56000;51.146;17.112;2023-01-13T00:56:14;3.00;;;1.80;;
68951;SDS011;56000;51.146;17.112;2023-01-13T00:58:59;4.20;;;2.10;;
68951;SDS011;56000;51.146;17.112;2023-01-13T01:01:33;3.20;;;1.90;;
68951;SDS011;56000;51.146;17.112;2023-01-13T01:04:06;3.20;;;1.90;;
68951;SDS011;56000;51.146;17.112;2023-01-13T01:06:40;6.70;;;1.90;;
68951;SDS011;56000;51.146;17.112;2023-01-13T01:09:14;3.50;;;2.10;;
68951;SDS011;56000;51.146;17.112;2023-01-13T01:11:47;2.20;;;1.80;;
68951;SDS011;56000;51.146;17.112;2023-01-13T01:14:20;4.10;;;2.20;;
68951;SDS011;56000;51.146;17.112;2023-01-13T01:16:53;3.70;;;1.80;;
68951;SDS011;56000;51.146;17.112;2023-01-13T01:19:27;5.20;;;2.10;;
68951;SDS011;56000;51.146;17.112;2023-01-13T01:22:00;4.20;;;2.00;;
68951;SDS011;56000;51.146;17.112;2023-01-13T01:24:33;3.30;;;1.80;;
68951;SDS011;56000;51.146;17.112;2023-01-13T01:27:06;3.20;;;2.10;;
68951;SDS011;56000;51.146;17.112;2023-01-13T01:29:40;3.30;;;1.80;;
68951;SDS011;56000;51.146;17.112;2023-01-13T01:32:13;2.30;;;1.70;;
68951;SDS011;56000;51.146;17.112;2023-01-13T01:34:46;2.00;;;1.50;;
68951;SDS011;56000;51.146;17.112;2023-01-13T01:37:20;2.40;;;1.40;;
68951;SDS011;56000;51.146;17.112;2023-01-13T01:39:53;2.30;;;1.60;;
68951;SDS011;56000;51.146;17.112;2023-01-13T01:42:26;3.30;;;1.70;;
68951;SDS011;56000;51.146;17.112;2023-01-13T01:45:18;3.10;;;1.60;;
68951;SDS011;56000;51.146;17.112;2023-01-13T01:47:54;3.30;;;1.80;;
68951;SDS011;56000;51.146;17.112;2023-01-13T01:50:30;3.20;;;2.10;;
68951;SDS011;56000;51.146;17.112;2023-01-13T01:53:06;2.50;;;1.70;;
68951;SDS011;56000;51.146;17.112;2023-01-13T01:55:43;3.50;;;1.70;;
68951;SDS011;56000;51.146;17.112;2023-01-13T01:58:18;2.40;;;1.50;;
68951;SDS011;56000;51.146;17.112;2023-01-13T02:00:55;6.50;;;1.80;;
68951;SDS011;56000;51.146;17.112;2023-01-13T02:03:29;4.30;;;1.70;;
68951;SDS011;56000;51.146;17.112;2023-01-13T02:06:02;2.70;;;1.80;;
68951;SDS011;56000;51.146;17.112;2023-01-13T02:08:37;2.00;;;1.60;;
68951;SDS011;56000;51.146;17.112;2023-01-13T02:11:32;3.50;;;1.90;;
68951;SDS011;56000;51.146;17.112;2023-01-13T02:14:24;3.00;;;1.80;;
68951;SDS011;56000;51.146;17.112;2023-01-13T02:17:09;2.80;;;2.10;;
68951;SDS011;56000;51.146;17.112;2023-01-13T02:23:32;1.90;;;1.70;;
68951;SDS011;56000;51.146;17.112;2023-01-13T02:30:05;3.20;;;1.50;;
68951;SDS011;56000;51.146;17.112;2023-01-13T02:33:07;3.20;;;1.70;;
68951;SDS011;56000;51.146;17.112;2023-01-13T02:35:51;2.80;;;1.80;;
68951;SDS011;56000;51.146;17.112;2023-01-13T02:38:32;2.10;;;1.40;;
68951;SDS011;56000;51.146;17.112;2023-01-13T02:41:12;2.50;;;1.50;;
68951;SDS011;56000;51.146;17.112;2023-01-13T02:44:07;2.00;;;1.40;;
68951;SDS011;56000;51.146;17.112;2023-01-13T02:46:50;2.70;;;1.60;;
68951;SDS011;56000;51.146;17.112;2023-01-13T02:49:32;2.10;;;1.40;;
68951;SDS011;56000;51.146;17.112;2023-01-13T02:52:10;2.00;;;1.30;;
68951;SDS011;56000;51.146;17.112;2023-01-13T02:54:49;3.00;;;1.70;;
68951;SDS011;56000;51.146;17.112;2023-01-13T02:57:26;3.50;;;1.70;;
68951;SDS011;56000;51.146;17.112;2023-01-13T03:00:03;3.60;;;1.50;;
68951;SDS011;56000;51.146;17.112;2023-01-13T03:02:40;2.10;;;1.50;;
68951;SDS011;56000;51.146;17.112;2023-01-13T03:05:14;1.90;;;1.50;;
68951;SDS011;56000;51.146;17.112;2023-01-13T03:07:58;2.60;;;1.80;;
68951;SDS011;56000;51.146;17.112;2023-01-13T03:10:51;3.00;;;1.40;;
68951;SDS011;56000;51.146;17.112;2023-01-13T03:16:41;3.10;;;1.70;;
68951;SDS011;56000;51.146;17.112;2023-01-13T03:19:28;4.40;;;1.70;;
68951;SDS011;56000;51.146;17.112;2023-01-13T03:22:13;2.00;;;1.30;;
68951;SDS011;56000;51.146;17.112;2023-01-13T03:24:54;2.50;;;1.50;;
68951;SDS011;56000;51.146;17.112;2023-01-13T03:27:31;2.00;;;1.40;;
68951;SDS011;56000;51.146;17.112;2023-01-13T03:30:14;2.10;;;1.60;;
68951;SDS011;56000;51.146;17.112;2023-01-13T03:32:51;1.40;;;1.30;;
68951;SDS011;56000;51.146;17.112;2023-01-13T03:35:31;2.00;;;1.20;;
68951;SDS011;56000;51.146;17.112;2023-01-13T03:38:08;2.10;;;1.40;;
68951;SDS011;56000;51.146;17.112;2023-01-13T03:40:46;3.00;;;1.70;;
68951;SDS011;56000;51.146;17.112;2023-01-13T03:43:25;2.60;;;1.40;;
68951;SDS011;56000;51.146;17.112;2023-01-13T03:46:23;3.70;;;1.30;;
68951;SDS011;56000;51.146;17.112;2023-01-13T03:49:02;1.90;;;1.40;;
68951;SDS011;56000;51.146;17.112;2023-01-13T03:51:39;3.20;;;1.50;;
68951;SDS011;56000;51.146;17.112;2023-01-13T03:54:18;3.10;;;1.90;;
68951;SDS011;56000;51.146;17.112;2023-01-13T03:56:55;2.20;;;1.50;;
68951;SDS011;56000;51.146;17.112;2023-01-13T03:59:34;2.20;;;1.40;;
68951;SDS011;56000;51.146;17.112;2023-01-13T04:02:15;2.60;;;1.60;;
68951;SDS011;56000;51.146;17.112;2023-01-13T04:04:55;3.00;;;1.40;;
68951;SDS011;56000;51.146;17.112;2023-01-13T04:07:42;3.30;;;1.30;;
68951;SDS011;56000;51.146;17.112;2023-01-13T04:10:22;2.90;;;1.40;;
68951;SDS011;56000;51.146;17.112;2023-01-13T04:13:00;3.50;;;1.40;;
68951;SDS011;56000;51.146;17.112;2023-01-13T04:15:38;2.70;;;1.10;;
68951;SDS011;56000;51.146;17.112;2023-01-13T04:18:15;2.50;;;1.50;;
68951;SDS011;56000;51.146;17.112;2023-01-13T04:20:52;5.30;;;1.80;;
68951;SDS011;56000;51.146;17.112;2023-01-13T04:23:27;4.50;;;1.60;;
68951;SDS011;56000;51.146;17.112;2023-01-13T04:26:01;2.50;;;1.50;;
68951;SDS011;56000;51.146;17.112;2023-01-13T04:28:34;4.40;;;1.40;;
68951;SDS011;56000;51.146;17.112;2023-01-13T04:31:09;2.30;;;1.20;;
68951;SDS011;56000;51.146;17.112;2023-01-13T04:33:42;1.60;;;1.30;;
68951;SDS011;56000;51.146;17.112;2023-01-13T04:36:15;2.60;;;1.30;;
68951;SDS011;56000;51.146;17.112;2023-01-13T04:38:54;3.30;;;1.30;;
68951;SDS011;56000;51.146;17.112;2023-01-13T04:41:27;4.60;;;1.50;;
68951;SDS011;56000;51.146;17.112;2023-01-13T04:44:21;4.20;;;1.70;;
68951;SDS011;56000;51.146;17.112;2023-01-13T04:46:55;2.90;;;1.50;;
68951;SDS011;56000;51.146;17.112;2023-01-13T04:49:29;2.20;;;1.30;;
68951;SDS011;56000;51.146;17.112;2023-01-13T04:52:02;2.40;;;1.40;;
68951;SDS011;56000;51.146;17.112;2023-01-13T04:54:35;4.90;;;1.50;;
68951;SDS011;56000;51.146;17.112;2023-01-13T04:57:08;1.40;;;1.20;;
68951;SDS011;56000;51.146;17.112;2023-01-13T04:59:42;5.50;;;1.60;;
68951;SDS011;56000;51.146;17.112;2023-01-13T05:02:15;5.50;;;1.40;;
68951;SDS011;56000;51.146;17.112;2023-01-13T05:04:49;2.40;;;1.50;;
68951;SDS011;56000;51.146;17.112;2023-01-13T05:07:22;2.60;;;1.60;;
68951;SDS011;56000;51.146;17.112;2023-01-13T05:09:56;2.50;;;1.30;;
68951;SDS011;56000;51.146;17.112;2023-01-13T05:12:29;4.80;;;1.40;;
68951;SDS011;56000;51.146;17.112;2023-01-13T05:15:20;2.70;;;1.50;;
68951;SDS011;56000;51.146;17.112;2023-01-13T05:18:11;1.40;;;1.20;;
68951;SDS011;56000;51.146;17.112;2023-01-13T05:20:44;1.10;;;1.10;;
68951;SDS011;56000;51.146;17.112;2023-01-13T05:23:17;3.90;;;1.60;;
68951;SDS011;56000;51.146;17.112;2023-01-13T05:28:39;2.40;;;1.30;;
68951;SDS011;56000;51.146;17.112;2023-01-13T05:31:13;3.30;;;1.50;;
68951;SDS011;56000;51.146;17.112;2023-01-13T05:33:46;7.50;;;1.70;;
68951;SDS011;56000;51.146;17.112;2023-01-13T05:36:19;3.70;;;1.60;;
68951;SDS011;56000;51.146;17.112;2023-01-13T05:38:53;1.60;;;1.20;;
68951;SDS011;56000;51.146;17.112;2023-01-13T05:41:26;1.90;;;1.30;;
68951;SDS011;56000;51.146;17.112;2023-01-13T05:46:48;1.80;;;1.20;;
68951;SDS011;56000;51.146;17.112;2023-01-13T05:49:21;3.00;;;1.50;;
68951;SDS011;56000;51.146;17.112;2023-01-13T05:51:55;7.00;;;1.70;;
68951;SDS011;56000;51.146;17.112;2023-01-13T05:54:28;3.00;;;1.40;;
68951;SDS011;56000;51.146;17.112;2023-01-13T05:57:01;2.00;;;1.50;;
68951;SDS011;56000;51.146;17.112;2023-01-13T05:59:34;8.70;;;1.70;;
68951;SDS011;56000;51.146;17.112;2023-01-13T06:02:07;5.50;;;1.70;;
68951;SDS011;56000;51.146;17.112;2023-01-13T06:04:40;4.70;;;1.70;;
68951;SDS011;56000;51.146;17.112;2023-01-13T06:07:13;5.70;;;1.40;;
68951;SDS011;56000;51.146;17.112;2023-01-13T06:09:46;2.20;;;1.40;;
68951;SDS011;56000;51.146;17.112;2023-01-13T06:12:19;1.50;;;1.20;;
68951;SDS011;56000;51.146;17.112;2023-01-13T06:14:53;2.80;;;1.40;;
68951;SDS011;56000;51.146;17.112;2023-01-13T06:17:26;2.20;;;1.60;;
68951;SDS011;56000;51.146;17.112;2023-01-13T06:19:59;2.30;;;1.60;;
68951;SDS011;56000;51.146;17.112;2023-01-13T06:22:32;3.20;;;1.60;;
68951;SDS011;56000;51.146;17.112;2023-01-13T06:25:11;3.70;;;1.50;;
68951;SDS011;56000;51.146;17.112;2023-01-13T06:27:49;2.50;;;1.60;;
68951;SDS011;56000;51.146;17.112;2023-01-13T06:30:23;3.80;;;1.60;;
68951;SDS011;56000;51.146;17.112;2023-01-13T06:32:58;3.70;;;1.60;;
68951;SDS011;56000;51.146;17.112;2023-01-13T06:35:35;3.80;;;1.40;;
68951;SDS011;56000;51.146;17.112;2023-01-13T06:38:10;2.40;;;1.40;;
68951;SDS011;56000;51.146;17.112;2023-01-13T06:40:45;4.20;;;1.90;;
68951;SDS011;56000;51.146;17.112;2023-01-13T06:43:18;3.00;;;1.90;;
68951;SDS011;56000;51.146;17.112;2023-01-13T06:45:53;2.70;;;1.40;;
68951;SDS011;56000;51.146;17.112;2023-01-13T06:48:28;4.60;;;1.90;;
68951;SDS011;56000;51.146;17.112;2023-01-13T06:51:06;2.30;;;1.20;;
68951;SDS011;56000;51.146;17.112;2023-01-13T06:53:39;2.30;;;1.30;;
68951;SDS011;56000;51.146;17.112;2023-01-13T06:56:12;1.90;;;1.20;;
68951;SDS011;56000;51.146;17.112;2023-01-13T06:58:46;4.40;;;2.00;;
68951;SDS011;56000;51.146;17.112;2023-01-13T07:01:18;1.60;;;1.20;;
68951;SDS011;56000;51.146;17.112;2023-01-13T07:03:52;2.70;;;1.40;;
68951;SDS011;56000;51.146;17.112;2023-01-13T07:06:27;4.20;;;1.40;;
68951;SDS011;56000;51.146;17.112;2023-01-13T07:09:00;2.00;;;1.20;;
68951;SDS011;56000;51.146;17.112;2023-01-13T07:11:35;2.40;;;1.20;;
68951;SDS011;56000;51.146;17.112;2023-01-13T07:14:08;1.80;;;1.30;;
68951;SDS011;56000;51.146;17.112;2023-01-13T07:16:59;1.50;;;1.40;;
68951;SDS011;56000;51.146;17.112;2023-01-13T07:19:32;1.20;;;1.10;;
68951;SDS011;56000;51.146;17.112;2023-01-13T07:22:05;1.40;;;1.30;;
68951;SDS011;56000;51.146;17.112;2023-01-13T07:24:38;2.00;;;1.20;;
68951;SDS011;56000;51.146;17.112;2023-01-13T07:27:11;2.70;;;1.40;;
68951;SDS011;56000;51.146;17.112;2023-01-13T07:29:44;1.50;;;1.00;;
68951;SDS011;56000;51.146;17.112;2023-01-13T07:32:18;3.50;;;1.20;;
68951;SDS011;56000;51.146;17.112;2023-01-13T07:34:51;1.40;;;1.20;;
68951;SDS011;56000;51.146;17.112;2023-01-13T07:37:24;1.80;;;1.40;;
68951;SDS011;56000;51.146;17.112;2023-01-13T07:39:57;1.80;;;1.00;;
68951;SDS011;56000;51.146;17.112;2023-01-13T07:42:30;2.20;;;1.60;;
68951;SDS011;56000;51.146;17.112;2023-01-13T07:45:20;2.60;;;1.20;;
68951;SDS011;56000;51.146;17.112;2023-01-13T07:47:54;1.80;;;1.30;;
68951;SDS011;56000;51.146;17.112;2023-01-13T07:50:27;1.80;;;1.50;;
68951;SDS011;56000;51.146;17.112;2023-01-13T07:53:00;4.50;;;1.50;;
68951;SDS011;56000;51.146;17.112;2023-01-13T07:55:33;3.70;;;1.60;;
68951;SDS011;56000;51.146;17.112;2023-01-13T07:58:11;2.70;;;1.10;;
68951;SDS011;56000;51.146;17.112;2023-01-13T08:00:44;2.50;;;1.30;;
68951;SDS011;56000;51.146;17.112;2023-01-13T08:03:17;1.30;;;1.20;;
68951;SDS011;56000;51.146;17.112;2023-01-13T08:05:50;1.70;;;1.10;;
68951;SDS011;56000;51.146;17.112;2023-01-13T08:08:23;2.60;;;1.60;;
68951;SDS011;56000;51.146;17.112;2023-01-13T08:10:59;4.20;;;1.30;;
68951;SDS011;56000;51.146;17.112;2023-01-13T08:13:33;4.00;;;1.50;;
68951;SDS011;56000;51.146;17.112;2023-01-13T08:16:08;3.40;;;1.50;;
68951;SDS011;56000;51.146;17.112;2023-01-13T08:18:43;3.90;;;1.40;;
68951;SDS011;56000;51.146;17.112;2023-01-13T08:21:16;2.80;;;1.50;;
68951;SDS011;56000;51.146;17.112;2023-01-13T08:23:49;1.90;;;1.30;;
68951;SDS011;56000;51.146;17.112;2023-01-13T08:26:22;4.30;;;1.20;;
68951;SDS011;56000;51.146;17.112;2023-01-13T08:28:56;2.50;;;1.60;;
68951;SDS011;56000;51.146;17.112;2023-01-13T08:31:29;2.80;;;1.80;;
68951;SDS011;56000;51.146;17.112;2023-01-13T08:34:02;3.50;;;1.70;;
68951;SDS011;56000;51.146;17.112;2023-01-13T08:36:35;2.00;;;1.50;;
68951;SDS011;56000;51.146;17.112;2023-01-13T08:39:08;2.60;;;1.50;;
68951;SDS011;56000;51.146;17.112;2023-01-13T08:41:43;2.60;;;1.50;;
68951;SDS011;56000;51.146;17.112;2023-01-13T08:44:26;4.10;;;2.20;;
68951;SDS011;56000;51.146;17.112;2023-01-13T08:47:00;7.10;;;1.90;;
68951;SDS011;56000;51.146;17.112;2023-01-13T08:49:34;2.40;;;1.40;;
68951;SDS011;56000;51.146;17.112;2023-01-13T08:52:07;2.10;;;1.60;;
68951;SDS011;56000;51.146;17.112;2023-01-13T08:54:40;3.90;;;1.80;;
68951;SDS011;56000;51.146;17.112;2023-01-13T08:57:14;2.60;;;1.70;;
68951;SDS011;56000;51.146;17.112;2023-01-13T08:59:48;2.40;;;1.30;;
68951;SDS011;56000;51.146;17.112;2023-01-13T09:02:22;5.00;;;2.10;;
68951;SDS011;56000;51.146;17.112;2023-01-13T09:04:56;7.20;;;1.70;;
68951;SDS011;56000;51.146;17.112;2023-01-13T09:07:32;4.70;;;1.70;;
68951;SDS011;56000;51.146;17.112;2023-01-13T09:10:08;2.10;;;1.60;;
68951;SDS011;56000;51.146;17.112;2023-01-13T09:12:42;1.90;;;1.20;;
68951;SDS011;56000;51.146;17.112;2023-01-13T09:15:33;2.90;;;1.80;;
68951;SDS011;56000;51.146;17.112;2023-01-13T09:18:06;3.10;;;1.60;;
68951;SDS011;56000;51.146;17.112;2023-01-13T09:20:39;2.40;;;1.40;;
68951;SDS011;56000;51.146;17.112;2023-01-13T09:23:13;3.00;;;1.60;;
68951;SDS011;56000;51.146;17.112;2023-01-13T09:25:46;2.00;;;1.40;;
68951;SDS011;56000;51.146;17.112;2023-01-13T09:28:19;2.90;;;1.40;;
68951;SDS011;56000;51.146;17.112;2023-01-13T09:30:53;4.30;;;1.50;;
68951;SDS011;56000;51.146;17.112;2023-01-13T09:33:30;4.00;;;1.70;;
68951;SDS011;56000;51.146;17.112;2023-01-13T09:36:21;3.10;;;1.70;;
68951;SDS011;56000;51.146;17.112;2023-01-13T09:38:54;2.60;;;1.70;;
68951;SDS011;56000;51.146;17.112;2023-01-13T09:41:28;4.90;;;2.20;;
68951;SDS011;56000;51.146;17.112;2023-01-13T09:44:23;2.00;;;1.70;;
68951;SDS011;56000;51.146;17.112;2023-01-13T09:47:02;2.00;;;1.50;;
68951;SDS011;56000;51.146;17.112;2023-01-13T09:49:42;1.80;;;1.50;;
68951;SDS011;56000;51.146;17.112;2023-01-13T09:52:17;3.20;;;1.70;;
68951;SDS011;56000;51.146;17.112;2023-01-13T09:54:56;2.30;;;1.70;;
68951;SDS011;56000;51.146;17.112;2023-01-13T09:57:35;3.80;;;1.50;;
68951;SDS011;56000;51.146;17.112;2023-01-13T10:00:15;2.80;;;1.40;;
68951;SDS011;56000;51.146;17.112;2023-01-13T10:03:06;2.10;;;1.60;;
68951;SDS011;56000;51.146;17.112;2023-01-13T10:05:52;5.80;;;1.90;;
68951;SDS011;56000;51.146;17.112;2023-01-13T10:08:30;3.90;;;2.00;;
68951;SDS011;56000;51.146;17.112;2023-01-13T10:11:08;2.90;;;1.70;;
68951;SDS011;56000;51.146;17.112;2023-01-13T10:14:00;2.80;;;1.60;;
68951;SDS011;56000;51.146;17.112;2023-01-13T10:16:43;4.10;;;1.90;;
68951;SDS011;56000;51.146;17.112;2023-01-13T10:19:23;5.50;;;1.80;;
68951;SDS011;56000;51.146;17.112;2023-01-13T10:22:19;5.80;;;1.80;;
68951;SDS011;56000;51.146;17.112;2023-01-13T10:25:29;3.90;;;1.80;;
68951;SDS011;56000;51.146;17.112;2023-01-13T10:28:11;3.90;;;1.80;;
68951;SDS011;56000;51.146;17.112;2023-01-13T10:30:48;5.80;;;2.30;;
68951;SDS011;56000;51.146;17.112;2023-01-13T10:33:24;3.20;;;1.60;;
68951;SDS011;56000;51.146;17.112;2023-01-13T10:35:59;5.70;;;2.00;;
68951;SDS011;56000;51.146;17.112;2023-01-13T10:38:39;2.80;;;1.50;;
68951;SDS011;56000;51.146;17.112;2023-01-13T10:41:22;4.40;;;2.00;;
68951;SDS011;56000;51.146;17.112;2023-01-13T10:44:01;4.40;;;2.30;;
68951;SDS011;56000;51.146;17.112;2023-01-13T10:46:52;5.60;;;2.60;;
68951;SDS011;56000;51.146;17.112;2023-01-13T10:49:32;8.90;;;2.70;;
68951;SDS011;56000;51.146;17.112;2023-01-13T10:52:26;3.70;;;1.80;;
68951;SDS011;56000;51.146;17.112;2023-01-13T10:55:01;7.60;;;1.80;;
68951;SDS011;56000;51.146;17.112;2023-01-13T10:57:52;2.10;;;1.60;;
68951;SDS011;56000;51.146;17.112;2023-01-13T11:00:31;4.50;;;1.90;;
68951;SDS011;56000;51.146;17.112;2023-01-13T11:03:17;3.50;;;1.70;;
68951;SDS011;56000;51.146;17.112;2023-01-13T11:05:54;2.80;;;1.60;;
68951;SDS011;56000;51.146;17.112;2023-01-13T11:08:29;2.80;;;1.90;;
68951;SDS011;56000;51.146;17.112;2023-01-13T11:11:28;2.90;;;1.60;;
68951;SDS011;56000;51.146;17.112;2023-01-13T11:14:16;3.50;;;1.70;;
68951;SDS011;56000;51.146;17.112;2023-01-13T11:17:16;2.50;;;1.80;;
68951;SDS011;56000;51.146;17.112;2023-01-13T11:20:16;5.50;;;2.00;;
68951;SDS011;56000;51.146;17.112;2023-01-13T11:23:00;5.40;;;1.70;;
68951;SDS011;56000;51.146;17.112;2023-01-13T11:25:39;6.30;;;1.70;;
68951;SDS011;56000;51.146;17.112;2023-01-13T11:28:25;2.70;;;1.80;;
68951;SDS011;56000;51.146;17.112;2023-01-13T11:31:09;2.70;;;1.60;;
68951;SDS011;56000;51.146;17.112;2023-01-13T11:33:53;6.40;;;1.70;;
68951;SDS011;56000;51.146;17.112;2023-01-13T11:36:33;3.20;;;1.70;;
68951;SDS011;56000;51.146;17.112;2023-01-13T11:39:17;2.80;;;1.60;;
68951;SDS011;56000;51.146;17.112;2023-01-13T11:41:57;5.80;;;2.70;;
68951;SDS011;56000;51.146;17.112;2023-01-13T11:45:04;3.80;;;2.20;;
68951;SDS011;56000;51.146;17.112;2023-01-13T11:47:47;4.90;;;2.30;;
68951;SDS011;56000;51.146;17.112;2023-01-13T11:50:31;3.70;;;2.00;;
68951;SDS011;56000;51.146;17.112;2023-01-13T11:53:22;2.90;;;1.90;;
68951;SDS011;56000;51.146;17.112;2023-01-13T11:56:22;2.50;;;1.90;;
68951;SDS011;56000;51.146;17.112;2023-01-13T11:59:23;5.90;;;2.00;;
68951;SDS011;56000;51.146;17.112;2023-01-13T12:02:18;4.40;;;1.80;;
68951;SDS011;56000;51.146;17.112;2023-01-13T12:05:06;2.10;;;1.60;;
68951;SDS011;56000;51.146;17.112;2023-01-13T12:07:50;2.80;;;1.80;;
68951;SDS011;56000;51.146;17.112;2023-01-13T12:10:41;3.20;;;1.70;;
68951;SDS011;56000;51.146;17.112;2023-01-13T12:13:27;4.50;;;1.80;;
68951;SDS011;56000;51.146;17.112;2023-01-13T12:16:14;3.50;;;1.60;;
68951;SDS011;56000;51.146;17.112;2023-01-13T12:22:08;5.30;;;1.70;;
68951;SDS011;56000;51.146;17.112;2023-01-13T12:24:47;6.90;;;1.60;;
68951;SDS011;56000;51.146;17.112;2023-01-13T12:27:31;5.60;;;2.00;;
68951;SDS011;56000;51.146;17.112;2023-01-13T12:30:21;3.20;;;1.50;;
68951;SDS011;56000;51.146;17.112;2023-01-13T12:32:59;3.20;;;1.80;;
68951;SDS011;56000;51.146;17.112;2023-01-13T12:35:47;4.10;;;1.80;;
68951;SDS011;56000;51.146;17.112;2023-01-13T12:38:32;3.00;;;1.70;;
68951;SDS011;56000;51.146;17.112;2023-01-13T12:41:14;4.90;;;2.00;;
68951;SDS011;56000;51.146;17.112;2023-01-13T12:43:54;4.40;;;2.00;;
68951;SDS011;56000;51.146;17.112;2023-01-13T12:46:50;5.00;;;1.70;;
68951;SDS011;56000;51.146;17.112;2023-01-13T12:49:27;3.70;;;1.80;;
68951;SDS011;56000;51.146;17.112;2023-01-13T12:52:15;5.40;;;2.00;;
68951;SDS011;56000;51.146;17.112;2023-01-13T12:55:11;4.60;;;1.90;;
68951;SDS011;56000;51.146;17.112;2023-01-13T12:58:01;3.10;;;1.90;;
68951;SDS011;56000;51.146;17.112;2023-01-13T13:00:59;2.50;;;1.80;;
68951;SDS011;56000;51.146;17.112;2023-01-13T13:03:41;3.20;;;2.00;;
68951;SDS011;56000;51.146;17.112;2023-01-13T13:06:42;1.90;;;1.70;;
68951;SDS011;56000;51.146;17.112;2023-01-13T13:09:24;2.70;;;1.70;;
68951;SDS011;56000;51.146;17.112;2023-01-13T13:15:38;3.50;;;2.10;;
68951;SDS011;56000;51.146;17.112;2023-01-13T13:18:26;4.20;;;2.00;;
68951;SDS011;56000;51.146;17.112;2023-01-13T13:21:04;4.40;;;2.10;;
68951;SDS011;56000;51.146;17.112;2023-01-13T13:23:41;4.20;;;2.60;;
68951;SDS011;56000;51.146;17.112;2023-01-13T13:26:38;4.90;;;2.20;;
68951;SDS011;56000;51.146;17.112;2023-01-13T13:29:28;5.20;;;3.40;;
68951;SDS011;56000;51.146;17.112;2023-01-13T13:32:34;4.70;;;2.80;;
68951;SDS011;56000;51.146;17.112;2023-01-13T13:35:27;5.00;;;2.80;;
68951;SDS011;56000;51.146;17.112;2023-01-13T13:38:16;9.00;;;3.60;;
68951;SDS011;56000;51.146;17.112;2023-01-13T13:41:16;4.50;;;2.50;;
68951;SDS011;56000;51.146;17.112;2023-01-13T13:44:13;7.60;;;3.20;;
68951;SDS011;56000;51.146;17.112;2023-01-13T13:47:07;5.70;;;2.80;;
68951;SDS011;56000;51.146;17.112;2023-01-13T13:49:42;6.00;;;2.30;;
68951;SDS011;56000;51.146;17.112;2023-01-13T13:52:21;5.80;;;2.30;;
68951;SDS011;56000;51.146;17.112;2023-01-13T13:55:05;6.10;;;2.90;;
68951;SDS011;56000;51.146;17.112;2023-01-13T13:57:50;5.70;;;2.90;;
68951;SDS011;56000;51.146;17.112;2023-01-13T14:00:25;6.00;;;3.10;;
68951;SDS011;56000;51.146;17.112;2023-01-13T14:03:02;4.30;;;2.50;;
68951;SDS011;56000;51.146;17.112;2023-01-13T14:05:36;4.50;;;2.60;;
68951;SDS011;56000;51.146;17.112;2023-01-13T14:08:15;4.70;;;3.00;;
68951;SDS011;56000;51.146;17.112;2023-01-13T14:10:49;6.10;;;2.50;;
68951;SDS011;56000;51.146;17.112;2023-01-13T14:13:23;9.30;;;3.30;;
68951;SDS011;56000;51.146;17.112;2023-01-13T14:15:58;6.50;;;3.50;;
68951;SDS011;56000;51.146;17.112;2023-01-13T14:18:38;7.90;;;3.20;;
68951;SDS011;56000;51.146;17.112;2023-01-13T14:21:21;8.00;;;3.60;;
68951;SDS011;56000;51.146;17.112;2023-01-13T14:23:58;10.90;;;3.20;;
68951;SDS011;56000;51.146;17.112;2023-01-13T14:26:39;11.40;;;3.10;;
68951;SDS011;56000;51.146;17.112;2023-01-13T14:29:15;6.90;;;2.60;;
68951;SDS011;56000;51.146;17.112;2023-01-13T14:31:52;5.40;;;2.20;;
68951;SDS011;56000;51.146;17.112;2023-01-13T14:34:25;4.80;;;2.20;;
68951;SDS011;56000;51.146;17.112;2023-01-13T14:37:02;3.90;;;2.30;;
68951;SDS011;56000;51.146;17.112;2023-01-13T14:39:51;4.20;;;2.30;;
68951;SDS011;56000;51.146;17.112;2023-01-13T14:42:24;2.60;;;2.00;;
68951;SDS011;56000;51.146;17.112;2023-01-13T14:44:58;4.00;;;2.20;;
68951;SDS011;56000;51.146;17.112;2023-01-13T14:47:32;3.60;;;2.40;;
68951;SDS011;56000;51.146;17.112;2023-01-13T14:50:15;5.20;;;2.50;;
68951;SDS011;56000;51.146;17.112;2023-01-13T14:52:52;4.80;;;2.50;;
68951;SDS011;56000;51.146;17.112;2023-01-13T14:55:29;4.70;;;2.30;;
68951;SDS011;56000;51.146;17.112;2023-01-13T14:58:23;4.00;;;2.30;;
68951;SDS011;56000;51.146;17.112;2023-01-13T15:01:25;3.60;;;2.10;;
68951;SDS011;56000;51.146;17.112;2023-01-13T15:04:20;2.80;;;2.00;;
68951;SDS011;56000;51.146;17.112;2023-01-13T15:06:57;26.10;;;10.80;;
68951;SDS011;56000;51.146;17.112;2023-01-13T15:09:36;4.90;;;3.10;;
68951;SDS011;56000;51.146;17.112;2023-01-13T15:12:21;4.30;;;2.60;;
68951;SDS011;56000;51.146;17.112;2023-01-13T15:15:00;8.60;;;4.00;;
68951;SDS011;56000;51.146;17.112;2023-01-13T15:17:36;9.70;;;4.70;;
68951;SDS011;56000;51.146;17.112;2023-01-13T15:20:14;7.60;;;4.20;;
68951;SDS011;56000;51.146;17.112;2023-01-13T15:22:48;10.20;;;4.30;;
68951;SDS011;56000;51.146;17.112;2023-01-13T15:25:22;5.00;;;3.00;;
68951;SDS011;56000;51.146;17.112;2023-01-13T15:27:55;10.10;;;5.40;;
68951;SDS011;56000;51.146;17.112;2023-01-13T15:30:29;9.20;;;5.20;;
68951;SDS011;56000;51.146;17.112;2023-01-13T15:33:02;8.90;;;4.60;;
68951;SDS011;56000;51.146;17.112;2023-01-13T15:35:35;10.60;;;4.90;;
68951;SDS011;56000;51.146;17.112;2023-01-13T15:38:12;7.20;;;3.70;;
68951;SDS011;56000;51.146;17.112;2023-01-13T15:40:47;7.30;;;3.50;;
68951;SDS011;56000;51.146;17.112;2023-01-13T15:43:22;7.40;;;3.90;;
68951;SDS011;56000;51.146;17.112;2023-01-13T15:46:13;6.80;;;3.20;;
68951;SDS011;56000;51.146;17.112;2023-01-13T15:49:06;4.40;;;2.70;;
68951;SDS011;56000;51.146;17.112;2023-01-13T15:51:50;5.10;;;3.10;;
68951;SDS011;56000;51.146;17.112;2023-01-13T15:54:23;6.30;;;3.00;;
68951;SDS011;56000;51.146;17.112;2023-01-13T15:56:57;7.20;;;3.90;;
68951;SDS011;56000;51.146;17.112;2023-01-13T15:59:30;11.30;;;4.80;;
68951;SDS011;56000;51.146;17.112;2023-01-13T16:02:07;7.40;;;4.50;;
68951;SDS011;56000;51.146;17.112;2023-01-13T16:04:43;8.70;;;4.50;;
68951;SDS011;56000;51.146;17.112;2023-01-13T16:07:18;9.50;;;3.80;;